createdAt,value
2022-09-25T00:00:57.186Z,8.25
2022-09-25T00:03:25.981Z,5.25
2022-09-25T00:06:00.326Z,5.72
2022-09-25T00:08:27.032Z,5.68
2022-09-25T00:10:53.743Z,6.80
2022-09-25T00:13:21.734Z,7.20
2022-09-25T00:15:51.411Z,4.22
2022-09-25T00:18:42.533Z,5.63
2022-09-25T00:21:12.759Z,5.23
2022-09-25T00:23:41.288Z,7.75
2022-09-25T00:26:08.924Z,4.55
2022-09-25T00:28:37.481Z,5.75
2022-09-25T00:31:05.998Z,6.30
2022-09-25T00:33:36.473Z,4.10
2022-09-25T00:36:07.153Z,2.78
2022-09-25T00:38:35.622Z,3.80
2022-09-25T00:41:03.049Z,4.45
2022-09-25T00:44:02.326Z,5.68
2022-09-25T00:46:31.870Z,6.43
2022-09-25T00:49:17.779Z,5.00
2022-09-25T00:52:10.563Z,3.33
2022-09-25T00:54:44.547Z,5.45
2022-09-25T00:57:15.906Z,7.93
2022-09-25T00:59:50.833Z,4.63
2022-09-25T01:02:24.963Z,8.80
2022-09-25T01:04:52.139Z,5.75
2022-09-25T01:07:19.973Z,5.30
2022-09-25T01:09:46.939Z,7.47
2022-09-25T01:12:13.945Z,6.50
2022-09-25T01:14:43.501Z,5.32
2022-09-25T01:17:32.642Z,7.60
2022-09-25T01:20:29.644Z,6.60
2022-09-25T01:22:56.322Z,6.35
2022-09-25T01:26:04.271Z,8.52
2022-09-25T01:28:52.248Z,6.70
2022-09-25T01:31:54.816Z,5.65
2022-09-25T01:34:33.483Z,6.82
2022-09-25T01:37:12.216Z,7.38
2022-09-25T01:39:45.401Z,7.07
2022-09-25T01:42:21.713Z,4.80
2022-09-25T01:44:56.433Z,6.88
2022-09-25T01:47:28.797Z,9.13
2022-09-25T01:50:05.345Z,4.97
2022-09-25T01:52:39.533Z,8.82
2022-09-25T01:55:25.261Z,7.35
2022-09-25T01:58:03.038Z,5.60
2022-09-25T02:00:30.068Z,5.55
2022-09-25T02:03:14.222Z,4.28
2022-09-25T02:05:56.500Z,9.18
2022-09-25T02:08:39.631Z,8.73
2022-09-25T02:11:07.129Z,7.40
2022-09-25T02:13:52.265Z,9.70
2022-09-25T02:16:28.959Z,5.82
2022-09-25T02:19:14.624Z,6.90
2022-09-25T02:22:08.892Z,6.28
2022-09-25T02:24:58.923Z,7.55
2022-09-25T02:27:29.518Z,5.18
2022-09-25T02:29:58.258Z,9.05
2022-09-25T02:32:31.471Z,10.15
2022-09-25T02:35:02.576Z,6.38
2022-09-25T02:37:29.631Z,8.02
2022-09-25T02:40:00.519Z,6.47
2022-09-25T02:42:36.230Z,10.33
2022-09-25T02:45:20.643Z,6.43
2022-09-25T02:48:10.356Z,9.05
2022-09-25T02:50:45.563Z,6.10
2022-09-25T02:53:21.932Z,6.97
2022-09-25T02:56:05.706Z,6.97
2022-09-25T02:58:41.360Z,7.38
2022-09-25T03:01:14.325Z,5.97
2022-09-25T03:03:42.467Z,5.68
2022-09-25T03:06:10.507Z,8.70
2022-09-25T03:08:44.751Z,5.88
2022-09-25T03:11:16.997Z,8.60
2022-09-25T03:13:46.931Z,8.55
2022-09-25T03:16:23.060Z,8.45
2022-09-25T03:18:52.033Z,9.18
2022-09-25T03:21:18.774Z,11.73
2022-09-25T03:23:47.949Z,9.55
2022-09-25T03:26:17.462Z,6.07
2022-09-25T03:28:47.194Z,9.55
2022-09-25T03:31:14.016Z,8.80
2022-09-25T03:33:42.553Z,8.18
2022-09-25T03:36:14.108Z,9.35
2022-09-25T03:38:44.083Z,9.07
2022-09-25T03:41:12.698Z,11.80
2022-09-25T03:43:43.499Z,8.73
2022-09-25T03:46:12.896Z,10.70
2022-09-25T03:48:42.766Z,9.77
2022-09-25T03:51:11.927Z,9.98
2022-09-25T03:53:40.114Z,7.63
2022-09-25T03:56:12.853Z,8.13
2022-09-25T03:58:41.818Z,9.93
2022-09-25T04:01:10.983Z,9.18
2022-09-25T04:03:41.062Z,6.28
2022-09-25T04:06:11.073Z,7.20
2022-09-25T04:08:40.025Z,9.30
2022-09-25T04:11:06.918Z,7.20
2022-09-25T04:13:36.431Z,12.23
2022-09-25T04:16:05.351Z,10.82
2022-09-25T04:18:35.367Z,7.30
2022-09-25T04:21:05.013Z,8.57
2022-09-25T04:23:32.503Z,7.82
2022-09-25T04:26:01.490Z,9.38
2022-09-25T04:28:31.612Z,5.75
2022-09-25T04:30:58.333Z,5.20
2022-09-25T04:33:43.668Z,9.15
2022-09-25T04:36:10.634Z,8.23
2022-09-25T04:38:37.397Z,7.05
2022-09-25T04:41:04.268Z,6.57
2022-09-25T04:43:32.245Z,4.78
2022-09-25T04:46:07.802Z,5.22
2022-09-25T04:48:35.863Z,7.55
2022-09-25T04:51:03.893Z,6.90
2022-09-25T04:53:31.863Z,5.10
2022-09-25T04:56:04.262Z,4.80
2022-09-25T04:58:31.655Z,9.80
2022-09-25T05:01:03.584Z,6.38
2022-09-25T05:03:30.592Z,6.85
2022-09-25T05:05:59.948Z,5.38
2022-09-25T05:08:27.724Z,4.70
2022-09-25T05:10:54.468Z,5.25
2022-09-25T05:13:23.371Z,6.22
2022-09-25T05:15:50.142Z,7.53
2022-09-25T05:18:20.788Z,4.63
2022-09-25T05:20:48.660Z,3.58
2022-09-25T05:23:16.201Z,3.20
2022-09-25T05:25:43.131Z,4.80
2022-09-25T05:28:12.986Z,2.80
2022-09-25T05:30:43.684Z,4.45
2022-09-25T05:33:10.377Z,4.03
2022-09-25T05:35:37.410Z,5.07
2022-09-25T05:38:06.602Z,5.07
2022-09-25T05:40:33.365Z,4.45
2022-09-25T05:43:02.048Z,5.50
2022-09-25T05:45:31.455Z,6.82
2022-09-25T05:48:06.754Z,8.82
2022-09-25T05:50:36.466Z,4.88
2022-09-25T05:53:05.263Z,5.25
2022-09-25T05:55:32.316Z,6.45
2022-09-25T05:58:03.821Z,4.88
2022-09-25T06:00:32.778Z,7.35
2022-09-25T06:03:01.198Z,7.85
2022-09-25T06:05:28.210Z,6.88
2022-09-25T06:07:55.872Z,10.57
2022-09-25T06:10:22.825Z,5.80
2022-09-25T06:12:49.636Z,6.40
2022-09-25T06:15:18.760Z,5.63
2022-09-25T06:17:45.449Z,7.88
2022-09-25T06:20:16.253Z,6.40
2022-09-25T06:22:44.535Z,7.97
2022-09-25T06:25:11.525Z,8.95
2022-09-25T06:27:38.351Z,5.90
2022-09-25T06:30:05.919Z,6.40
2022-09-25T06:32:32.639Z,5.28
2022-09-25T06:35:01.977Z,7.95
2022-09-25T06:37:28.712Z,8.60
2022-09-25T06:39:55.399Z,7.90
2022-09-25T06:42:22.145Z,4.65
2022-09-25T06:44:51.199Z,4.38
2022-09-25T06:47:23.539Z,6.15
2022-09-25T06:49:52.809Z,7.88
2022-09-25T06:52:20.540Z,7.75
2022-09-25T06:54:47.409Z,5.60
2022-09-25T06:57:14.566Z,7.30
2022-09-25T06:59:45.894Z,6.90
2022-09-25T07:02:31.082Z,5.68
2022-09-25T07:05:00.598Z,5.38
2022-09-25T07:07:31.486Z,7.63
2022-09-25T07:09:58.196Z,5.97
2022-09-25T07:12:24.894Z,6.63
2022-09-25T07:14:51.625Z,7.07
2022-09-25T07:17:18.352Z,6.65
2022-09-25T07:19:48.525Z,4.93
2022-09-25T07:22:15.260Z,8.30
2022-09-25T07:24:45.099Z,8.25
2022-09-25T07:27:11.967Z,8.73
2022-09-25T07:29:41.179Z,7.20
2022-09-25T07:32:07.995Z,6.97
2022-09-25T07:34:36.172Z,7.10
2022-09-25T07:37:05.357Z,7.93
2022-09-25T07:39:35.030Z,5.55
2022-09-25T07:42:04.092Z,5.63
2022-09-25T07:44:37.459Z,5.97
2022-09-25T07:47:07.177Z,8.82
2022-09-25T07:49:35.051Z,9.50
2022-09-25T07:52:02.379Z,9.88
2022-09-25T07:54:29.105Z,5.63
2022-09-25T07:56:58.490Z,6.90
2022-09-25T07:59:27.670Z,8.75
2022-09-25T08:01:54.692Z,4.53
2022-09-25T08:04:24.001Z,4.57
2022-09-25T08:06:53.734Z,6.32
2022-09-25T08:09:20.475Z,7.75
2022-09-25T08:11:47.195Z,8.27
2022-09-25T08:14:19.041Z,4.70
2022-09-25T08:16:48.838Z,8.07
2022-09-25T08:19:18.801Z,4.38
2022-09-25T08:21:48.298Z,8.30
2022-09-25T08:24:17.290Z,6.07
2022-09-25T08:26:44.149Z,6.32
2022-09-25T08:29:13.091Z,7.70
2022-09-25T08:31:42.117Z,7.35
2022-09-25T08:34:36.224Z,6.63
2022-09-25T08:37:04.446Z,7.57
2022-09-25T08:39:31.121Z,4.28
2022-09-25T08:42:02.774Z,7.38
2022-09-25T08:47:46.077Z,5.72
2022-09-25T08:50:18.831Z,5.53
2022-09-25T08:52:53.437Z,6.65
2022-09-25T08:55:50.973Z,6.38
2022-09-25T08:58:29.831Z,5.88
2022-09-25T09:01:01.287Z,3.10
2022-09-25T09:03:30.542Z,9.23
2022-09-25T09:06:12.050Z,5.38
2022-09-25T09:08:43.130Z,5.90
2022-09-25T09:11:18.118Z,4.10
2022-09-25T09:14:16.412Z,6.05
2022-09-25T09:17:04.823Z,6.72
2022-09-25T09:19:31.666Z,5.38
2022-09-25T09:22:00.770Z,7.20
2022-09-25T09:24:45.870Z,6.50
2022-09-25T09:27:34.153Z,7.53
2022-09-25T09:30:15.728Z,6.72
2022-09-25T09:33:11.554Z,3.60
2022-09-25T09:35:53.609Z,4.47
2022-09-25T09:39:01.940Z,3.45
2022-09-25T09:41:43.299Z,4.32
2022-09-25T09:44:35.426Z,3.47
2022-09-25T09:47:39.489Z,4.40
2022-09-25T09:50:17.626Z,7.32
2022-09-25T09:52:46.995Z,3.65
2022-09-25T09:55:23.081Z,5.88
2022-09-25T09:57:56.265Z,4.78
2022-09-25T10:00:24.293Z,5.03
2022-09-25T10:03:05.415Z,5.93
2022-09-25T10:05:41.344Z,7.53
2022-09-25T10:08:12.747Z,4.55
2022-09-25T10:10:45.396Z,4.05
2022-09-25T10:13:20.427Z,2.60
2022-09-25T10:16:00.413Z,4.45
2022-09-25T10:18:49.316Z,2.35
2022-09-25T10:21:27.170Z,2.92
2022-09-25T10:23:56.002Z,3.42
2022-09-25T10:26:31.458Z,3.00
2022-09-25T10:29:02.486Z,3.10
2022-09-25T10:31:40.639Z,5.03
2022-09-25T10:34:22.289Z,7.88
2022-09-25T10:36:53.590Z,5.25
2022-09-25T10:39:45.196Z,3.25
2022-09-25T10:42:39.147Z,2.22
2022-09-25T10:45:32.707Z,4.15
2022-09-25T10:48:17.864Z,3.95
2022-09-25T10:50:44.837Z,3.35
2022-09-25T10:53:30.408Z,3.97
2022-09-25T10:56:12.351Z,4.32
2022-09-25T10:58:57.425Z,3.58
2022-09-25T11:01:35.389Z,4.20
2022-09-25T11:04:07.843Z,4.50
2022-09-25T11:06:35.669Z,3.45
2022-09-25T11:09:09.456Z,4.07
2022-09-25T11:11:38.705Z,2.30
2022-09-25T11:14:08.408Z,2.47
2022-09-25T11:16:58.459Z,4.93
2022-09-25T11:19:36.841Z,1.67
2022-09-25T11:22:18.328Z,2.40
2022-09-25T11:25:15.586Z,3.40
2022-09-25T11:27:55.560Z,3.63
2022-09-25T11:30:23.952Z,2.17
2022-09-25T11:33:15.167Z,1.55
2022-09-25T11:35:45.921Z,3.78
2022-09-25T11:39:06.500Z,2.50
2022-09-25T11:41:51.739Z,5.68
2022-09-25T11:44:18.392Z,3.08
2022-09-25T11:46:53.701Z,3.13
2022-09-25T11:49:32.167Z,1.92
2022-09-25T11:52:41.257Z,2.63
2022-09-25T11:55:23.879Z,1.58
2022-09-25T11:57:56.185Z,1.67
2022-09-25T12:00:28.611Z,3.53
2022-09-25T12:03:19.597Z,1.55
2022-09-25T12:06:07.314Z,1.30
2022-09-25T12:09:00.618Z,2.03
2022-09-25T12:12:01.918Z,1.58
2022-09-25T12:14:38.535Z,1.58
2022-09-25T12:17:18.662Z,2.40
2022-09-25T12:20:22.620Z,2.55
2022-09-25T12:23:14.236Z,0.95
2022-09-25T12:26:10.646Z,1.50
2022-09-25T12:28:46.809Z,1.73
2022-09-25T12:31:28.937Z,4.57
2022-09-25T12:34:50.821Z,1.15
2022-09-25T12:37:27.775Z,1.77
2022-09-25T12:40:02.976Z,2.10
2022-09-25T12:42:46.171Z,2.13
2022-09-25T12:45:25.490Z,3.05
2022-09-25T12:48:10.888Z,3.83
2022-09-25T12:51:00.374Z,5.13
2022-09-25T12:53:43.621Z,3.25
2022-09-25T12:56:24.599Z,3.33
2022-09-25T12:59:03.415Z,3.35
2022-09-25T13:01:40.897Z,1.92
2022-09-25T13:04:48.586Z,2.92
2022-09-25T13:07:27.040Z,2.00
2022-09-25T13:09:53.826Z,3.72
2022-09-25T13:12:39.362Z,3.50
2022-09-25T13:15:11.422Z,3.00
2022-09-25T13:17:39.944Z,2.83
2022-09-25T13:20:28.340Z,2.67
2022-09-25T13:23:02.061Z,2.08
2022-09-25T13:25:30.030Z,2.58
2022-09-25T13:28:09.108Z,1.98
2022-09-25T13:30:36.361Z,1.73
2022-09-25T13:33:04.047Z,3.83
2022-09-25T13:35:33.183Z,3.25
2022-09-25T13:38:38.274Z,2.55
2022-09-25T13:41:13.447Z,3.00
2022-09-25T13:43:42.528Z,2.60
2022-09-25T13:46:17.965Z,3.42
2022-09-25T13:48:44.887Z,1.77
2022-09-25T13:51:18.100Z,5.38
2022-09-25T13:54:00.264Z,2.92
2022-09-25T13:56:40.435Z,2.92
2022-09-25T13:59:12.924Z,3.28
2022-09-25T14:02:24.579Z,4.40
2022-09-25T14:04:51.945Z,2.22
2022-09-25T14:07:23.079Z,2.17
2022-09-25T14:09:54.656Z,2.17
2022-09-25T14:12:37.986Z,2.00
2022-09-25T14:15:32.354Z,1.60
2022-09-25T14:18:00.946Z,1.42
2022-09-25T14:20:33.457Z,1.25
2022-09-25T14:23:24.704Z,1.75
2022-09-25T14:26:21.600Z,3.95
2022-09-25T14:28:51.993Z,0.82
2022-09-25T14:31:37.228Z,1.65
2022-09-25T14:34:41.680Z,2.30
2022-09-25T14:37:16.752Z,2.75
2022-09-25T14:40:08.085Z,5.10
2022-09-25T14:43:01.956Z,3.60
2022-09-25T14:45:34.571Z,2.13
2022-09-25T14:48:05.292Z,1.20
2022-09-25T14:50:38.507Z,1.83
2022-09-25T14:53:11.401Z,1.92
2022-09-25T14:55:51.116Z,3.33
2022-09-25T14:58:28.021Z,2.35
2022-09-25T15:01:03.585Z,3.53
2022-09-25T15:03:33.589Z,4.38
2022-09-25T15:06:02.486Z,7.28
2022-09-25T15:08:41.011Z,3.42
2022-09-25T15:11:17.281Z,3.85
2022-09-25T15:13:47.027Z,2.50
2022-09-25T15:16:37.412Z,3.25
2022-09-25T15:19:13.868Z,3.13
2022-09-25T15:21:43.359Z,4.05
2022-09-25T15:24:21.961Z,2.45
2022-09-25T15:26:51.871Z,3.55
2022-09-25T15:29:22.133Z,4.22
2022-09-25T15:31:53.659Z,3.50
2022-09-25T15:34:23.855Z,2.60
2022-09-25T15:36:51.975Z,3.80
2022-09-25T15:39:25.013Z,2.97
2022-09-25T15:41:52.476Z,1.95
2022-09-25T15:44:27.820Z,4.47
2022-09-25T15:47:01.409Z,3.33
2022-09-25T15:49:40.416Z,4.00
2022-09-25T15:52:29.278Z,2.25
2022-09-25T15:55:05.660Z,2.50
2022-09-25T15:57:36.682Z,5.47
2022-09-25T16:00:27.651Z,2.38
2022-09-25T16:03:20.257Z,2.10
2022-09-25T16:05:49.389Z,2.65
2022-09-25T16:08:27.417Z,2.38
2022-09-25T16:11:21.533Z,3.60
2022-09-25T16:14:14.603Z,2.00
2022-09-25T16:16:47.502Z,4.95
2022-09-25T16:19:37.499Z,3.20
2022-09-25T16:22:23.794Z,2.92
2022-09-25T16:24:52.927Z,4.95
2022-09-25T16:27:28.792Z,1.48
2022-09-25T16:30:03.709Z,3.85
2022-09-25T16:32:33.853Z,3.75
2022-09-25T16:35:02.928Z,3.75
2022-09-25T16:37:35.767Z,1.83
2022-09-25T16:40:24.863Z,3.97
2022-09-25T16:42:54.906Z,2.63
2022-09-25T16:45:27.625Z,5.47
2022-09-25T16:47:54.923Z,2.17
2022-09-25T16:50:26.211Z,5.15
2022-09-25T16:52:58.787Z,3.53
2022-09-25T16:55:28.909Z,4.07
2022-09-25T16:57:56.868Z,3.30
2022-09-25T17:00:28.246Z,3.00
2022-09-25T17:02:55.491Z,5.03
2022-09-25T17:05:29.850Z,4.65
2022-09-25T17:08:20.203Z,3.75
2022-09-25T17:10:55.736Z,3.90
2022-09-25T17:13:27.740Z,4.47
2022-09-25T17:15:56.660Z,2.22
2022-09-25T17:18:26.194Z,4.95
2022-09-25T17:20:54.614Z,4.55
2022-09-25T17:23:24.869Z,4.28
2022-09-25T17:26:20.123Z,5.22
2022-09-25T17:28:47.404Z,4.22
2022-09-25T17:31:21.961Z,5.45
2022-09-25T17:33:52.210Z,5.20
2022-09-25T17:36:24.703Z,4.07
2022-09-25T17:38:54.242Z,6.75
2022-09-25T17:41:26.723Z,4.80
2022-09-25T17:43:55.794Z,6.07
2022-09-25T17:46:26.533Z,4.45
2022-09-25T17:48:59.366Z,5.67
2022-09-25T17:51:28.416Z,5.03
2022-09-25T17:53:56.374Z,5.95
2022-09-25T17:56:34.174Z,6.13
2022-09-25T17:59:05.629Z,5.30
2022-09-25T18:01:39.671Z,3.50
2022-09-25T18:04:27.575Z,4.00
2022-09-25T18:06:56.583Z,4.63
2022-09-25T18:09:23.384Z,4.93
2022-09-25T18:11:50.230Z,5.32
2022-09-25T18:14:19.955Z,7.32
2022-09-25T18:16:46.909Z,5.45
2022-09-25T18:19:37.197Z,5.38
2022-09-25T18:22:21.382Z,7.30
2022-09-25T18:24:56.716Z,4.15
2022-09-25T18:27:32.701Z,3.58
2022-09-25T18:30:04.240Z,3.97
2022-09-25T18:32:36.063Z,4.03
2022-09-25T18:35:05.978Z,3.22
2022-09-25T18:37:35.379Z,4.10
2022-09-25T18:40:05.941Z,4.28
2022-09-25T18:42:33.023Z,3.22
2022-09-25T18:45:00.799Z,4.97
2022-09-25T18:47:27.974Z,5.47
2022-09-25T18:49:56.885Z,9.50
2022-09-25T18:52:23.954Z,7.38
2022-09-25T18:54:52.979Z,7.32
2022-09-25T18:57:24.963Z,7.43
2022-09-25T18:59:55.407Z,7.40
2022-09-25T19:02:30.410Z,5.53
2022-09-25T19:05:00.656Z,8.05
2022-09-25T19:07:28.959Z,3.78
2022-09-25T19:09:58.538Z,7.55
2022-09-25T19:12:27.931Z,8.02
2022-09-25T19:14:57.244Z,4.85
2022-09-25T19:17:26.125Z,4.28
2022-09-25T19:19:52.824Z,4.80
2022-09-25T19:22:20.574Z,4.00
2022-09-25T19:24:48.871Z,6.90
2022-09-25T19:27:17.178Z,3.85
2022-09-25T19:29:47.414Z,4.72
2022-09-25T19:32:19.348Z,4.57
2022-09-25T19:34:50.023Z,7.40
2022-09-25T19:37:19.641Z,4.90
2022-09-25T19:40:07.417Z,4.38
2022-09-25T19:42:37.211Z,4.95
2022-09-25T19:45:04.453Z,5.90
2022-09-25T19:47:31.947Z,3.95
2022-09-25T19:49:58.756Z,5.75
2022-09-25T19:52:28.552Z,4.88
2022-09-25T19:54:58.883Z,4.25
2022-09-25T19:57:25.632Z,4.00
2022-09-25T19:59:52.346Z,9.13
2022-09-25T20:02:21.285Z,7.68
2022-09-25T20:04:50.582Z,8.00
2022-09-25T20:07:20.069Z,6.85
2022-09-25T20:09:47.511Z,6.15
2022-09-25T20:12:16.610Z,3.78
2022-09-25T20:14:43.313Z,11.88
2022-09-25T20:17:10.481Z,8.00
2022-09-25T20:19:40.234Z,4.72
2022-09-25T20:22:06.926Z,7.60
2022-09-25T20:24:33.848Z,6.68
2022-09-25T20:27:02.838Z,7.10
2022-09-25T20:29:29.794Z,5.93
2022-09-25T20:31:56.546Z,5.95
2022-09-25T20:34:23.342Z,6.18
2022-09-25T20:36:50.237Z,8.35
2022-09-25T20:39:21.090Z,4.80
2022-09-25T20:41:49.239Z,4.93
2022-09-25T20:44:18.502Z,4.78
2022-09-25T20:46:45.465Z,6.05
2022-09-25T20:49:12.603Z,7.88
2022-09-25T20:51:40.057Z,5.55
2022-09-25T20:54:10.058Z,7.18
2022-09-25T20:56:39.095Z,7.43
2022-09-25T20:59:06.146Z,8.68
2022-09-25T21:01:36.681Z,6.60
2022-09-25T21:04:09.849Z,5.73
2022-09-25T21:06:39.749Z,5.95
2022-09-25T21:09:26.389Z,4.43
2022-09-25T21:11:53.974Z,5.07
2022-09-25T21:14:23.682Z,6.28
2022-09-25T21:16:52.200Z,6.85
2022-09-25T21:19:20.920Z,6.97
2022-09-25T21:21:48.649Z,11.32
2022-09-25T21:24:18.610Z,5.75
2022-09-25T21:26:46.427Z,6.78
2022-09-25T21:29:15.963Z,6.78
2022-09-25T21:31:49.689Z,7.35
2022-09-25T21:34:18.008Z,8.25
2022-09-25T21:36:46.331Z,7.30
2022-09-25T21:39:13.728Z,6.57
2022-09-25T21:41:40.697Z,7.38
2022-09-25T21:44:13.141Z,10.75
2022-09-25T21:46:40.467Z,8.07
2022-09-25T21:49:08.475Z,8.68
2022-09-25T21:51:41.039Z,6.38
2022-09-25T21:54:10.017Z,8.52
2022-09-25T21:56:39.383Z,10.60
2022-09-25T21:59:09.186Z,8.38
2022-09-25T22:01:38.980Z,7.03
2022-09-25T22:04:07.436Z,10.63
2022-09-25T22:06:37.002Z,7.18
2022-09-25T22:09:09.717Z,8.85
2022-09-25T22:11:37.547Z,9.43
2022-09-25T22:14:09.792Z,11.05
2022-09-25T22:16:40.437Z,6.45
2022-09-25T22:19:12.371Z,6.45
2022-09-25T22:21:42.879Z,5.63
2022-09-25T22:24:10.524Z,10.52
2022-09-25T22:26:40.427Z,9.23
2022-09-25T22:29:07.482Z,8.85
2022-09-25T22:31:35.784Z,6.53
2022-09-25T22:34:08.389Z,6.20
2022-09-25T22:36:36.369Z,7.22
2022-09-25T22:39:06.617Z,9.38
2022-09-25T22:41:33.712Z,8.27
2022-09-25T22:44:03.295Z,11.68
2022-09-25T22:46:30.578Z,9.48
2022-09-25T22:48:57.356Z,6.32
2022-09-25T22:51:27.746Z,8.07
2022-09-25T22:53:54.757Z,7.72
2022-09-25T22:56:26.972Z,10.40
2022-09-25T22:58:59.118Z,7.95
2022-09-25T23:01:53.073Z,6.18
2022-09-25T23:04:22.864Z,6.10
2022-09-25T23:06:52.435Z,6.40
2022-09-25T23:09:25.820Z,8.27
2022-09-25T23:11:58.472Z,6.47
2022-09-25T23:14:30.256Z,5.80
2022-09-25T23:17:01.187Z,7.65
2022-09-25T23:19:28.007Z,8.35
2022-09-25T23:21:54.956Z,7.28
2022-09-25T23:24:23.615Z,6.68
2022-09-25T23:26:53.671Z,9.43
2022-09-25T23:29:21.946Z,6.40
2022-09-25T23:31:52.143Z,5.28
2022-09-25T23:34:21.565Z,8.05
2022-09-25T23:36:51.100Z,4.70
2022-09-25T23:39:19.261Z,10.52
2022-09-25T23:41:46.403Z,6.20
2022-09-25T23:44:13.277Z,7.10
2022-09-25T23:46:41.521Z,8.30
2022-09-25T23:49:09.306Z,7.45
2022-09-25T23:51:36.617Z,7.70
2022-09-25T23:54:03.879Z,10.30
2022-09-25T23:56:34.914Z,14.38
2022-09-25T23:59:02.849Z,10.63
